KJFK

John F Kennedy International Airport

New York, New York, USA
METAR KJFK 212151Z 19016KT 10SM BKN250 10/02 A3028 RMK AO2 SLP252 T01000017
Observed Flight Rules
Apr-21 @ 21:51 UTC (an hour ago) Visual Flight Rules
Wind Visibility Clouds
190° at 16 knots 10 miles
  • Broken at 25,000' AGL
Temperatures Readings
Current 10°C / 50°F
Dewpoint 2°C / 36°F
Humidity 58%
Altimeter 30.28" Hg
Pressure 1025.2 hPa
Elevation 9
METAR KJFK 212151Z 19016KT 10SM BKN250 10/02 A3028 RMK AO2 SLP252 T01000017
Observed Flight Rules
Apr-21 @ 21:51 UTC
(an hour ago)
VFR
Wind Visibility
190° at 16 knots 10 miles
Clouds
  • Broken at 25,000' AGL
Temperature Dewpoint
10°C / 50°F 2°C / 36°F
Humidity Altimeter Pressure
58% 30.28" Hg 1025.2 hPa